createdAt,value
2022-09-14T00:04:21.552Z,13.80
2022-09-14T00:09:29.576Z,13.75
2022-09-14T00:14:38.067Z,13.66
2022-09-14T00:19:46.132Z,13.60
2022-09-14T00:24:57.938Z,13.51
2022-09-14T00:30:12.411Z,13.36
2022-09-14T00:35:21.351Z,13.29
2022-09-14T00:40:29.647Z,13.23
2022-09-14T00:45:43.203Z,13.21
2022-09-14T00:50:52.109Z,13.24
2022-09-14T00:56:00.910Z,13.26
2022-09-14T01:01:10.620Z,13.17
2022-09-14T01:06:31.536Z,13.09
2022-09-14T01:11:52.758Z,13.01
2022-09-14T01:17:08.352Z,12.99
2022-09-14T01:22:25.384Z,12.93
2022-09-14T01:27:36.475Z,12.90
2022-09-14T01:32:54.346Z,12.85
2022-09-14T01:38:07.264Z,12.85
2022-09-14T01:43:21.928Z,12.89
2022-09-14T01:48:33.925Z,12.90
2022-09-14T01:53:45.361Z,12.84
2022-09-14T01:58:57.455Z,12.80
2022-09-14T02:04:12.631Z,12.75
2022-09-14T02:09:27.364Z,12.70
2022-09-14T02:14:38.028Z,12.68
2022-09-14T02:20:02.347Z,12.64
2022-09-14T02:25:13.645Z,12.58
2022-09-14T02:30:23.348Z,12.51
2022-09-14T02:35:38.326Z,12.49
2022-09-14T02:40:53.770Z,12.50
2022-09-14T02:46:10.679Z,12.55
2022-09-14T02:51:27.905Z,12.61
2022-09-14T02:56:37.762Z,12.63
2022-09-14T03:01:46.009Z,12.61
2022-09-14T03:06:54.274Z,12.56
2022-09-14T03:12:03.597Z,12.50
2022-09-14T03:17:11.481Z,12.47
2022-09-14T03:22:23.346Z,12.43
2022-09-14T03:27:45.618Z,12.37
2022-09-14T03:32:53.542Z,12.27
2022-09-14T03:38:03.505Z,12.21
2022-09-14T03:43:20.891Z,12.19
2022-09-14T03:48:28.692Z,12.10
2022-09-14T03:53:37.675Z,12.10
2022-09-14T03:58:47.413Z,12.08
2022-09-14T04:04:11.058Z,12.01
2022-09-14T04:09:20.818Z,11.96
2022-09-14T04:14:34.902Z,11.98
2022-09-14T04:19:46.829Z,11.96
2022-09-14T04:24:55.158Z,11.95
2022-09-14T04:30:04.523Z,11.94
2022-09-14T04:35:13.914Z,11.91
2022-09-14T04:40:22.881Z,11.92
2022-09-14T04:45:32.439Z,11.93
2022-09-14T04:50:50.354Z,11.98
2022-09-14T04:56:03.228Z,11.97
2022-09-14T05:01:13.296Z,11.97
2022-09-14T05:06:23.737Z,12.07
2022-09-14T05:11:35.032Z,12.13
2022-09-14T05:22:06.170Z,12.30
2022-09-14T05:27:18.186Z,12.46
2022-09-14T05:32:30.451Z,12.62
2022-09-14T05:37:40.109Z,12.78
2022-09-14T05:42:50.027Z,12.92
2022-09-14T05:47:58.263Z,13.05
2022-09-14T05:53:10.748Z,13.20
2022-09-14T05:58:25.916Z,13.41
2022-09-14T06:03:37.668Z,13.61
2022-09-14T06:08:47.128Z,13.82
2022-09-14T06:13:57.446Z,14.03
2022-09-14T06:19:08.953Z,14.26
2022-09-14T06:24:19.570Z,14.45
2022-09-14T06:29:34.024Z,14.62
2022-09-14T06:34:43.807Z,14.82
2022-09-14T06:39:54.261Z,15.02
2022-09-14T06:45:08.128Z,15.25
2022-09-14T06:50:21.266Z,15.51
2022-09-14T06:55:38.634Z,15.75
2022-09-14T07:00:47.886Z,15.95
2022-09-14T07:06:02.646Z,16.14
2022-09-14T07:11:13.420Z,16.35
2022-09-14T07:16:21.720Z,16.54
2022-09-14T07:21:31.367Z,16.69
2022-09-14T07:26:44.920Z,16.80
2022-09-14T07:32:02.840Z,16.91
2022-09-14T07:37:22.094Z,17.03
2022-09-14T07:42:29.612Z,17.17
2022-09-14T07:47:38.170Z,17.33
2022-09-14T07:52:47.478Z,17.44
2022-09-14T07:58:04.860Z,17.51
2022-09-14T08:03:12.825Z,17.56
2022-09-14T08:08:22.879Z,17.63
2022-09-14T08:13:33.387Z,17.67
2022-09-14T08:18:41.779Z,17.68
2022-09-14T08:23:54.379Z,17.71
2022-09-14T08:29:18.177Z,17.78
2022-09-14T08:34:26.490Z,17.86
2022-09-14T08:39:37.673Z,17.96
2022-09-14T08:44:51.302Z,18.05
2022-09-14T08:50:06.627Z,18.15
2022-09-14T08:55:36.261Z,18.26
2022-09-14T09:00:48.430Z,18.39
2022-09-14T09:06:04.833Z,18.51
2022-09-14T09:11:20.108Z,18.62
2022-09-14T09:16:36.704Z,18.70
2022-09-14T09:21:48.486Z,18.80
2022-09-14T09:26:56.614Z,18.92
2022-09-14T09:32:06.149Z,19.05
2022-09-14T09:37:18.920Z,19.18
2022-09-14T09:42:28.977Z,19.30
2022-09-14T09:47:39.797Z,19.41
2022-09-14T09:52:53.711Z,19.54
2022-09-14T09:58:25.092Z,19.66
2022-09-14T10:03:37.982Z,19.77
2022-09-14T10:08:51.699Z,19.86
2022-09-14T10:14:32.987Z,19.92
2022-09-14T10:19:40.191Z,19.98
2022-09-14T10:24:56.824Z,19.99
2022-09-14T10:30:10.706Z,20.00
2022-09-14T10:35:25.886Z,20.02
2022-09-14T10:40:54.431Z,20.08
2022-09-14T10:46:41.451Z,20.10
2022-09-14T10:59:12.116Z,20.10
2022-09-14T11:04:59.943Z,20.13
2022-09-14T11:10:32.763Z,20.15
2022-09-14T11:16:27.222Z,20.14
2022-09-14T11:27:50.282Z,20.07
2022-09-14T11:33:09.781Z,20.03
2022-09-14T11:38:39.303Z,20.02
2022-09-14T11:43:55.444Z,19.90
2022-09-14T11:49:17.270Z,19.77
2022-09-14T11:54:41.489Z,19.69
2022-09-14T12:00:14.862Z,19.66
2022-09-14T12:05:40.196Z,19.67
2022-09-14T12:11:31.452Z,19.64
2022-09-14T12:17:38.952Z,19.63
2022-09-14T12:22:49.381Z,19.52
2022-09-14T12:27:58.077Z,19.39
2022-09-14T12:33:05.914Z,19.30
2022-09-14T12:39:05.925Z,19.20
2022-09-14T12:44:36.658Z,18.98
2022-09-14T12:49:45.058Z,18.77
2022-09-14T12:55:09.261Z,18.59
2022-09-14T13:00:27.353Z,18.43
2022-09-14T13:05:36.401Z,18.22
2022-09-14T13:10:57.742Z,18.07
2022-09-14T13:16:09.105Z,17.90
2022-09-14T13:21:25.660Z,17.77
2022-09-14T13:26:38.639Z,17.59
2022-09-14T13:31:49.102Z,17.47
2022-09-14T13:37:01.543Z,17.39
2022-09-14T13:42:12.520Z,17.26
2022-09-14T13:47:25.097Z,17.18
2022-09-14T13:53:01.234Z,17.12
2022-09-14T14:03:44.167Z,17.19
2022-09-14T14:08:59.424Z,17.19
2022-09-14T14:14:31.513Z,17.23
2022-09-14T14:19:43.980Z,17.29
2022-09-14T14:30:24.072Z,17.35
2022-09-14T14:41:09.974Z,17.16
2022-09-14T14:46:19.179Z,17.08
2022-09-14T14:51:29.920Z,17.02
2022-09-14T14:56:38.135Z,16.96
2022-09-14T15:01:52.477Z,16.95
2022-09-14T15:07:00.568Z,16.92
2022-09-14T15:12:08.494Z,16.86
2022-09-14T15:17:18.007Z,16.81
2022-09-14T15:22:26.362Z,16.81
2022-09-14T15:27:34.669Z,16.80
2022-09-14T15:32:42.212Z,16.78
2022-09-14T15:37:52.135Z,16.75
2022-09-14T15:43:09.110Z,16.70
2022-09-14T15:48:18.855Z,16.66
2022-09-14T15:53:29.859Z,16.64
2022-09-14T15:58:37.892Z,16.62
2022-09-14T16:03:46.183Z,16.63
2022-09-14T16:08:54.431Z,16.66
2022-09-14T16:14:02.547Z,16.70
2022-09-14T16:19:20.749Z,16.72
2022-09-14T16:24:29.612Z,16.72
2022-09-14T16:29:39.621Z,16.72
2022-09-14T16:34:47.358Z,16.72
2022-09-14T16:39:54.768Z,16.69
2022-09-14T16:45:06.481Z,16.65
2022-09-14T16:50:16.061Z,16.62
2022-09-14T16:55:23.442Z,16.56
2022-09-14T17:00:36.315Z,16.51
2022-09-14T17:05:43.952Z,16.46
2022-09-14T17:10:54.908Z,16.45
2022-09-14T17:16:09.385Z,16.47
2022-09-14T17:21:19.369Z,16.45
2022-09-14T17:26:32.447Z,16.42
2022-09-14T17:31:42.716Z,16.40
2022-09-14T17:36:50.916Z,16.41
2022-09-14T17:42:00.041Z,16.41
2022-09-14T17:47:08.300Z,16.42
2022-09-14T17:52:15.878Z,16.46
2022-09-14T17:57:26.276Z,16.46
2022-09-14T18:02:33.403Z,16.49
2022-09-14T18:07:40.532Z,16.57
2022-09-14T18:12:49.021Z,16.64
2022-09-14T18:17:57.222Z,16.68
2022-09-14T18:23:05.026Z,16.67
2022-09-14T18:28:13.269Z,16.70
2022-09-14T18:33:20.758Z,16.74
2022-09-14T18:38:33.998Z,16.77
2022-09-14T18:43:46.469Z,16.76
2022-09-14T18:49:12.198Z,16.66
2022-09-14T18:54:28.615Z,16.55
2022-09-14T18:59:39.754Z,16.48
2022-09-14T19:04:51.203Z,16.40
2022-09-14T19:10:01.169Z,16.32
2022-09-14T19:15:15.745Z,16.28
2022-09-14T19:20:48.708Z,16.24
2022-09-14T19:26:16.970Z,16.20
2022-09-14T19:31:30.945Z,16.24
2022-09-14T19:36:41.866Z,16.26
2022-09-14T19:41:50.444Z,16.30
2022-09-14T19:47:01.547Z,16.39
2022-09-14T19:52:09.866Z,16.40
2022-09-14T19:57:17.995Z,16.38
2022-09-14T20:02:28.246Z,16.34
2022-09-14T20:07:36.134Z,16.29
2022-09-14T20:12:47.067Z,16.28
2022-09-14T20:17:57.914Z,16.33
2022-09-14T20:23:06.501Z,16.38
2022-09-14T20:28:14.257Z,16.41
2022-09-14T20:33:21.720Z,16.44
2022-09-14T20:38:31.235Z,16.47
2022-09-14T20:43:41.553Z,16.49
2022-09-14T20:48:53.057Z,16.49
2022-09-14T20:54:01.289Z,16.47
2022-09-14T20:59:12.181Z,16.42
2022-09-14T21:04:22.283Z,16.39
2022-09-14T21:09:32.116Z,16.41
2022-09-14T21:14:48.868Z,16.42
2022-09-14T21:19:56.892Z,16.43
2022-09-14T21:25:11.506Z,16.40
2022-09-14T21:30:20.045Z,16.39
2022-09-14T21:35:32.885Z,16.43
2022-09-14T21:40:46.937Z,16.44
2022-09-14T21:45:54.817Z,16.37
2022-09-14T21:51:08.973Z,16.39
2022-09-14T21:56:17.707Z,16.41
2022-09-14T22:01:26.418Z,16.40
2022-09-14T22:06:34.829Z,16.41
2022-09-14T22:11:45.760Z,16.35
2022-09-14T22:16:53.314Z,16.39
2022-09-14T22:27:23.551Z,16.43
2022-09-14T22:32:39.293Z,16.46
2022-09-14T22:37:51.097Z,16.49
2022-09-14T22:42:59.633Z,16.51
2022-09-14T22:48:10.826Z,16.48
2022-09-14T22:53:22.496Z,16.45
2022-09-14T22:58:45.856Z,16.42
2022-09-14T23:03:58.614Z,16.40
2022-09-14T23:09:09.322Z,16.43
2022-09-14T23:14:32.390Z,16.45
2022-09-14T23:19:49.103Z,16.45
2022-09-14T23:24:56.199Z,16.49
2022-09-14T23:30:04.119Z,16.53
2022-09-14T23:35:13.852Z,16.51
2022-09-14T23:40:22.049Z,16.43
2022-09-14T23:45:30.526Z,16.36
2022-09-14T23:50:39.443Z,16.30
2022-09-14T23:55:47.108Z,16.29
